createdAt,value
2023-05-10T00:03:42.362Z,0.40
2023-05-10T00:08:45.221Z,0.70
2023-05-10T00:13:53.198Z,1.57
2023-05-10T00:18:56.000Z,0.60
2023-05-10T00:23:58.633Z,0.57
2023-05-10T00:29:04.656Z,0.70
2023-05-10T00:34:07.228Z,0.60
2023-05-10T00:39:09.840Z,0.60
2023-05-10T00:44:12.556Z,0.60
2023-05-10T00:49:15.497Z,0.60
2023-05-10T00:54:18.227Z,0.60
2023-05-10T00:59:24.846Z,0.50
2023-05-10T01:04:29.582Z,0.70
2023-05-10T01:09:34.544Z,1.08
2023-05-10T01:14:37.779Z,0.60
2023-05-10T01:19:40.739Z,0.70
2023-05-10T01:25:12.523Z,0.60
2023-05-10T01:30:47.880Z,0.50
2023-05-10T01:35:56.816Z,0.60
2023-05-10T01:41:42.904Z,0.68
2023-05-10T01:46:52.795Z,0.57
2023-05-10T01:52:00.892Z,0.70
2023-05-10T01:57:11.128Z,1.00
2023-05-10T02:02:16.350Z,0.50
2023-05-10T02:07:21.506Z,0.80
2023-05-10T02:12:25.543Z,0.60
2023-05-10T02:17:30.339Z,1.00
2023-05-10T02:22:34.257Z,1.03
2023-05-10T02:27:42.875Z,0.80
2023-05-10T02:32:46.556Z,0.90
2023-05-10T02:37:49.719Z,1.10
2023-05-10T02:42:57.757Z,0.93
2023-05-10T02:48:01.648Z,0.80
2023-05-10T02:53:20.460Z,0.90
2023-05-10T02:58:23.525Z,0.85
2023-05-10T03:03:26.034Z,0.50
2023-05-10T03:08:30.780Z,0.88
2023-05-10T03:13:40.532Z,0.60
2023-05-10T03:19:14.178Z,0.90
2023-05-10T03:24:20.736Z,0.80
2023-05-10T03:29:27.672Z,1.37
2023-05-10T03:34:32.768Z,0.90
2023-05-10T03:39:35.639Z,1.10
2023-05-10T03:44:41.544Z,0.95
2023-05-10T03:49:44.977Z,1.00
2023-05-10T03:54:48.746Z,0.87
2023-05-10T03:59:51.848Z,0.80
2023-05-10T04:04:57.286Z,1.10
2023-05-10T04:10:00.663Z,0.90
2023-05-10T04:15:03.402Z,0.80
2023-05-10T04:20:07.915Z,0.83
2023-05-10T04:25:11.017Z,1.00
2023-05-10T04:30:13.919Z,0.60
2023-05-10T04:35:16.931Z,0.73
2023-05-10T04:40:19.562Z,0.70
2023-05-10T04:45:23.061Z,1.00
2023-05-10T04:50:26.689Z,0.77
2023-05-10T04:55:29.365Z,0.73
2023-05-10T05:00:34.422Z,0.90
2023-05-10T05:05:40.637Z,2.00
2023-05-10T05:10:43.794Z,1.97
2023-05-10T05:15:48.095Z,1.40
2023-05-10T05:20:50.998Z,1.03
2023-05-10T05:26:00.399Z,1.10
2023-05-10T05:31:27.533Z,1.83
2023-05-10T05:36:30.204Z,1.80
2023-05-10T05:41:42.139Z,1.80
2023-05-10T05:46:50.606Z,2.42
2023-05-10T05:51:53.452Z,2.10
2023-05-10T05:57:06.199Z,1.50
2023-05-10T06:02:10.994Z,1.70
2023-05-10T06:07:13.730Z,1.33
2023-05-10T06:12:16.738Z,1.70
2023-05-10T06:17:19.518Z,2.03
2023-05-10T06:22:24.548Z,1.70
2023-05-10T06:27:27.782Z,1.70
2023-05-10T06:32:31.148Z,1.85
2023-05-10T06:37:34.152Z,1.80
2023-05-10T06:42:37.057Z,2.37
2023-05-10T06:47:39.786Z,2.40
2023-05-10T06:52:44.082Z,2.00
2023-05-10T06:57:48.870Z,1.73
2023-05-10T07:02:54.065Z,2.20
2023-05-10T07:07:58.765Z,1.77
2023-05-10T07:13:04.342Z,1.48
2023-05-10T07:18:07.939Z,1.93
2023-05-10T07:23:10.763Z,1.70
2023-05-10T07:28:14.889Z,1.70
2023-05-10T07:33:18.011Z,2.03
2023-05-10T07:38:20.741Z,2.20
2023-05-10T07:43:23.613Z,2.50
2023-05-10T07:48:26.430Z,2.63
2023-05-10T07:53:29.140Z,2.87
2023-05-10T07:58:34.697Z,2.80
2023-05-10T08:03:38.507Z,3.80
2023-05-10T08:08:41.723Z,3.40
2023-05-10T08:13:45.761Z,3.78
2023-05-10T08:18:50.523Z,3.30
2023-05-10T08:23:53.663Z,3.30
2023-05-10T08:28:56.636Z,3.10
2023-05-10T08:33:59.520Z,3.10
2023-05-10T08:39:02.104Z,2.70
2023-05-10T08:44:14.388Z,2.63
2023-05-10T08:49:21.557Z,2.90
2023-05-10T08:54:29.208Z,2.80
2023-05-10T08:59:34.845Z,2.80
2023-05-10T09:09:58.653Z,2.65
2023-05-10T09:15:10.704Z,2.90
2023-05-10T09:20:16.413Z,2.70
2023-05-10T09:25:28.502Z,2.45
2023-05-10T09:30:32.434Z,2.73
2023-05-10T09:35:38.639Z,2.10
2023-05-10T09:40:59.060Z,2.42
2023-05-10T09:46:11.256Z,1.80
2023-05-10T09:51:24.812Z,1.53
2023-05-10T09:56:41.768Z,1.30
2023-05-10T10:01:52.693Z,1.40
2023-05-10T10:07:05.971Z,1.40
2023-05-10T10:12:09.987Z,1.60
2023-05-10T10:17:14.210Z,1.98
2023-05-10T10:22:19.797Z,2.30
2023-05-10T10:27:34.580Z,2.10
2023-05-10T10:33:05.615Z,2.13
2023-05-10T10:38:14.499Z,2.63
2023-05-10T10:43:28.494Z,2.37
2023-05-10T10:48:33.606Z,2.03
2023-05-10T10:53:40.530Z,1.70
2023-05-10T10:58:51.231Z,3.37
2023-05-10T11:04:02.941Z,2.80
2023-05-10T11:09:15.200Z,1.80
2023-05-10T11:14:25.956Z,2.60
2023-05-10T11:19:31.160Z,3.00
2023-05-10T11:24:37.112Z,3.50
2023-05-10T11:29:52.517Z,1.80
2023-05-10T11:34:56.575Z,3.60
2023-05-10T11:40:00.644Z,2.90
2023-05-10T11:45:16.409Z,2.13
2023-05-10T11:50:36.340Z,2.90
2023-05-10T11:55:40.962Z,2.35
2023-05-10T12:00:49.615Z,2.28
2023-05-10T12:05:53.312Z,1.90
2023-05-10T12:11:09.693Z,1.70
2023-05-10T12:16:24.415Z,1.50
2023-05-10T12:21:28.904Z,2.22
2023-05-10T12:26:31.882Z,2.00
2023-05-10T12:31:34.420Z,1.73
2023-05-10T12:36:40.114Z,1.83
2023-05-10T12:41:43.627Z,1.87
2023-05-10T12:46:46.361Z,2.78
2023-05-10T12:51:48.979Z,3.80
2023-05-10T12:56:52.123Z,2.80
2023-05-10T13:01:54.943Z,3.60
2023-05-10T13:07:00.134Z,3.40
2023-05-10T13:12:10.151Z,2.50
2023-05-10T13:17:16.100Z,1.73
2023-05-10T13:22:32.523Z,1.60
2023-05-10T13:27:42.160Z,1.50
2023-05-10T13:32:53.059Z,1.57
2023-05-10T13:37:58.815Z,1.15
2023-05-10T13:43:03.368Z,1.50
2023-05-10T13:48:07.154Z,1.37
2023-05-10T13:53:09.758Z,1.57
2023-05-10T13:58:18.255Z,1.40
2023-05-10T14:03:21.120Z,1.55
2023-05-10T14:08:28.447Z,1.37
2023-05-10T14:13:31.292Z,1.70
2023-05-10T14:18:36.968Z,1.73
2023-05-10T14:23:40.005Z,1.80
2023-05-10T14:28:44.862Z,1.80
2023-05-10T14:33:50.400Z,1.73
2023-05-10T14:38:52.978Z,1.70
2023-05-10T14:43:55.461Z,1.53
2023-05-10T14:48:59.077Z,1.85
2023-05-10T14:54:02.045Z,1.95
2023-05-10T14:59:05.373Z,2.10
2023-05-10T15:04:08.532Z,2.42
2023-05-10T15:09:11.722Z,1.80
2023-05-10T15:14:14.358Z,1.43
2023-05-10T15:19:17.778Z,1.83
2023-05-10T15:24:20.644Z,1.80
2023-05-10T15:29:23.689Z,2.00
2023-05-10T15:34:26.703Z,2.67
2023-05-10T15:39:37.264Z,2.45
2023-05-10T15:44:42.248Z,1.77
2023-05-10T15:49:46.542Z,2.00
2023-05-10T16:00:19.779Z,3.40
2023-05-10T16:05:25.108Z,3.63
2023-05-10T16:10:34.196Z,3.00
2023-05-10T16:15:39.218Z,2.42
2023-05-10T16:20:45.278Z,2.80
2023-05-10T16:25:48.109Z,2.30
2023-05-10T16:30:52.346Z,2.72
2023-05-10T16:35:55.073Z,2.00
2023-05-10T16:40:57.846Z,2.15
2023-05-10T16:46:00.580Z,2.35
2023-05-10T16:51:04.768Z,2.27
2023-05-10T16:56:07.768Z,2.90
2023-05-10T17:01:13.094Z,3.03
2023-05-10T17:06:15.838Z,2.63
2023-05-10T17:11:20.243Z,3.38
2023-05-10T17:16:22.916Z,3.20
2023-05-10T17:21:25.748Z,3.10
2023-05-10T17:26:30.249Z,3.50
2023-05-10T17:31:33.493Z,3.60
2023-05-10T17:36:36.463Z,3.67
2023-05-10T17:41:42.419Z,3.97
2023-05-10T17:46:45.116Z,3.97
2023-05-10T17:51:48.688Z,3.27
2023-05-10T17:56:53.774Z,3.38
2023-05-10T18:01:56.885Z,3.40
2023-05-10T18:07:01.930Z,3.77
2023-05-10T18:12:05.009Z,4.35
2023-05-10T18:17:07.952Z,4.20
2023-05-10T18:22:11.024Z,5.10
2023-05-10T18:27:13.874Z,6.60
2023-05-10T18:32:18.843Z,4.63
2023-05-10T18:37:21.568Z,4.83
2023-05-10T18:42:26.980Z,4.55
2023-05-10T18:47:29.648Z,4.37
2023-05-10T18:52:32.491Z,3.45
2023-05-10T18:57:41.705Z,3.42
2023-05-10T19:02:44.583Z,3.27
2023-05-10T19:07:47.507Z,3.88
2023-05-10T19:12:50.129Z,3.80
2023-05-10T19:17:52.906Z,4.20
2023-05-10T19:23:09.260Z,3.50
2023-05-10T19:28:13.053Z,4.60
2023-05-10T19:33:15.916Z,4.30
2023-05-10T19:38:28.164Z,3.80
2023-05-10T19:43:34.256Z,2.70
2023-05-10T19:48:37.432Z,1.80
2023-05-10T19:53:44.325Z,2.42
2023-05-10T19:58:46.994Z,2.10
2023-05-10T20:03:49.628Z,1.77
2023-05-10T20:08:52.265Z,1.77
2023-05-10T20:13:55.585Z,2.03
2023-05-10T20:18:58.278Z,1.50
2023-05-10T20:24:01.374Z,1.85
2023-05-10T20:29:04.048Z,1.57
2023-05-10T20:34:06.774Z,2.40
2023-05-10T20:39:09.887Z,2.33
2023-05-10T20:44:12.491Z,2.23
2023-05-10T20:49:15.045Z,2.83
2023-05-10T20:54:17.628Z,2.43
2023-05-10T20:59:20.364Z,2.13
2023-05-10T21:04:23.125Z,2.10
2023-05-10T21:09:25.630Z,1.93
2023-05-10T21:14:31.484Z,2.65
2023-05-10T21:19:34.142Z,2.53
2023-05-10T21:24:42.088Z,2.00
2023-05-10T21:29:44.657Z,2.58
2023-05-10T21:34:47.148Z,2.40
2023-05-10T21:39:50.213Z,3.38
2023-05-10T21:44:53.132Z,3.40
2023-05-10T21:49:55.646Z,3.90
2023-05-10T21:54:58.126Z,4.40
2023-05-10T22:00:00.608Z,4.10
2023-05-10T22:05:03.922Z,4.20
2023-05-10T22:10:09.108Z,4.43
2023-05-10T22:15:12.234Z,4.00
2023-05-10T22:20:15.098Z,4.18
2023-05-10T22:25:17.799Z,4.50
2023-05-10T22:30:20.756Z,4.40
2023-05-10T22:35:26.071Z,3.97
2023-05-10T22:40:28.615Z,4.30
2023-05-10T22:45:31.470Z,3.78
2023-05-10T22:50:34.254Z,3.78
2023-05-10T22:55:36.898Z,3.63
2023-05-10T23:00:39.851Z,4.07
2023-05-10T23:05:42.454Z,3.60
2023-05-10T23:10:44.942Z,3.85
2023-05-10T23:15:47.456Z,3.38
2023-05-10T23:20:49.952Z,3.43
2023-05-10T23:25:52.568Z,3.85
2023-05-10T23:30:56.987Z,3.33
2023-05-10T23:41:26.781Z,2.90
2023-05-10T23:46:30.832Z,2.20
2023-05-10T23:51:33.672Z,1.67
2023-05-10T23:56:36.439Z,1.42
